createdAt,value
2023-03-12T00:00:08.483Z,7.50
2023-03-12T00:00:19.518Z,7.90
2023-03-12T00:00:30.507Z,7.40
2023-03-12T00:00:41.267Z,8.70
2023-03-12T00:00:52.348Z,10.20
2023-03-12T00:01:03.278Z,9.80
2023-03-12T00:01:14.046Z,9.50
2023-03-12T00:01:25.106Z,8.70
2023-03-12T00:01:36.058Z,8.60
2023-03-12T00:01:46.825Z,8.90
2023-03-12T00:01:57.917Z,8.70
2023-03-12T00:02:08.896Z,8.80
2023-03-12T00:02:19.686Z,7.20
2023-03-12T00:02:30.718Z,7.90
2023-03-12T00:02:41.739Z,8.40
2023-03-12T00:02:52.586Z,8.90
2023-03-12T00:03:03.084Z,8.50
2023-03-12T00:03:14.066Z,8.00
2023-03-12T00:03:24.828Z,9.00
2023-03-12T00:03:35.910Z,9.10
2023-03-12T00:03:46.897Z,9.00
2023-03-12T00:03:57.667Z,9.40
2023-03-12T00:04:08.725Z,9.90
2023-03-12T00:04:19.662Z,9.50
2023-03-12T00:04:30.438Z,9.40
2023-03-12T00:04:41.468Z,7.70
2023-03-12T00:04:52.483Z,7.70
2023-03-12T00:05:03.254Z,8.20
2023-03-12T00:05:14.371Z,8.60
2023-03-12T00:05:25.337Z,10.60
2023-03-12T00:05:36.110Z,10.30
2023-03-12T00:05:47.207Z,10.30
2023-03-12T00:06:02.011Z,8.80
2023-03-12T00:06:11.022Z,9.30
2023-03-12T00:06:20.066Z,8.80
2023-03-12T00:06:31.037Z,9.20
2023-03-12T00:06:41.780Z,9.50
2023-03-12T00:06:52.826Z,10.50
2023-03-12T00:07:03.807Z,10.10
2023-03-12T00:07:14.583Z,9.80
2023-03-12T00:07:25.649Z,8.60
2023-03-12T00:07:36.721Z,8.70
2023-03-12T00:07:47.447Z,8.90
2023-03-12T00:07:58.523Z,9.20
2023-03-12T00:08:09.489Z,9.20
2023-03-12T00:08:20.237Z,9.50
2023-03-12T00:08:31.285Z,10.00
2023-03-12T00:08:42.251Z,11.90
2023-03-12T00:08:55.909Z,11.10
2023-03-12T00:09:04.074Z,10.70
2023-03-12T00:09:15.072Z,9.20
2023-03-12T00:09:25.810Z,9.00
2023-03-12T00:09:36.860Z,9.30
2023-03-12T00:09:47.845Z,8.70
2023-03-12T00:09:58.654Z,9.20
2023-03-12T00:10:09.690Z,10.10
2023-03-12T00:10:20.654Z,10.70
2023-03-12T00:10:31.440Z,10.10
2023-03-12T00:10:42.486Z,9.50
2023-03-12T00:10:53.449Z,10.00
2023-03-12T00:11:04.224Z,9.90
2023-03-12T00:11:15.260Z,9.90
2023-03-12T00:11:26.244Z,9.70
2023-03-12T00:11:37.053Z,9.60
2023-03-12T00:11:48.080Z,9.30
2023-03-12T00:11:59.050Z,9.70
2023-03-12T00:12:09.851Z,11.20
2023-03-12T00:12:20.887Z,10.40
2023-03-12T00:12:31.870Z,10.90
2023-03-12T00:12:42.642Z,9.30
2023-03-12T00:12:53.693Z,9.40
2023-03-12T00:13:04.689Z,9.80
2023-03-12T00:13:15.452Z,9.50
2023-03-12T00:13:26.510Z,10.40
2023-03-12T00:13:37.527Z,9.60
2023-03-12T00:13:48.278Z,9.90
2023-03-12T00:13:59.360Z,10.50
2023-03-12T00:14:10.343Z,11.90
2023-03-12T00:14:21.121Z,10.40
2023-03-12T00:14:31.664Z,9.70
2023-03-12T00:14:42.656Z,8.60
2023-03-12T00:14:53.468Z,9.00
2023-03-12T00:15:04.482Z,9.50
2023-03-12T00:15:15.446Z,9.80
2023-03-12T00:15:26.217Z,9.80
2023-03-12T00:15:37.295Z,9.20
2023-03-12T00:15:48.261Z,9.30
2023-03-12T00:15:59.034Z,8.70
2023-03-12T00:16:10.128Z,8.40
2023-03-12T00:16:20.880Z,8.00
2023-03-12T00:16:31.606Z,8.30
2023-03-12T00:16:42.709Z,9.00
2023-03-12T00:16:53.679Z,9.60
2023-03-12T00:17:04.412Z,9.90
2023-03-12T00:17:15.468Z,8.80
2023-03-12T00:17:26.425Z,8.70
2023-03-12T00:17:37.210Z,8.70
2023-03-12T00:17:48.246Z,9.30
2023-03-12T00:17:59.206Z,9.60
2023-03-12T00:18:09.992Z,9.50
2023-03-12T00:18:21.039Z,8.60
2023-03-12T00:18:32.009Z,8.50
2023-03-12T00:18:42.802Z,8.80
2023-03-12T00:18:53.867Z,9.10
2023-03-12T00:19:04.911Z,8.30
2023-03-12T00:19:15.630Z,8.80
2023-03-12T00:19:26.757Z,8.90
2023-03-12T00:19:37.744Z,8.90
2023-03-12T00:19:48.490Z,9.60
2023-03-12T00:19:59.561Z,10.10
2023-03-12T00:20:10.585Z,9.80
2023-03-12T00:20:21.330Z,9.10
2023-03-12T00:20:32.368Z,8.80
2023-03-12T00:20:43.352Z,8.10
2023-03-12T00:20:54.123Z,7.20
2023-03-12T00:21:05.158Z,8.30
2023-03-12T00:21:16.127Z,9.60
2023-03-12T00:21:26.893Z,9.30
2023-03-12T00:21:37.943Z,8.80
2023-03-12T00:21:48.917Z,9.10
2023-03-12T00:21:59.700Z,9.00
2023-03-12T00:22:10.751Z,9.50
2023-03-12T00:22:21.714Z,9.90
2023-03-12T00:22:32.502Z,10.00
2023-03-12T00:22:43.544Z,8.20
2023-03-12T00:22:54.517Z,8.90
2023-03-12T00:23:05.390Z,9.20
2023-03-12T00:23:15.838Z,8.40
2023-03-12T00:23:26.794Z,7.20
2023-03-12T00:23:37.592Z,5.90
2023-03-12T00:23:48.653Z,7.10
2023-03-12T00:23:59.599Z,8.80
2023-03-12T00:24:10.358Z,9.60
2023-03-12T00:24:21.413Z,8.10
2023-03-12T00:24:32.411Z,7.50
2023-03-12T00:24:43.152Z,8.50
2023-03-12T00:24:54.237Z,8.20
2023-03-12T00:25:05.202Z,10.00
2023-03-12T00:25:15.995Z,9.40
2023-03-12T00:25:27.034Z,10.30
2023-03-12T00:25:38.014Z,10.00
2023-03-12T00:25:48.789Z,10.00
2023-03-12T00:25:59.830Z,7.70
2023-03-12T00:26:10.822Z,7.50
2023-03-12T00:26:21.632Z,7.90
2023-03-12T00:26:32.164Z,8.20
2023-03-12T00:26:43.182Z,7.80
2023-03-12T00:26:53.936Z,8.50
2023-03-12T00:27:04.990Z,9.50
2023-03-12T00:27:16.015Z,9.30
2023-03-12T00:27:26.736Z,8.60
2023-03-12T00:27:37.784Z,7.90
2023-03-12T00:27:48.785Z,7.90
2023-03-12T00:27:59.562Z,7.70
2023-03-12T00:28:10.609Z,8.20
2023-03-12T00:28:21.576Z,9.10
2023-03-12T00:28:32.353Z,8.70
2023-03-12T00:28:43.414Z,7.70
2023-03-12T00:28:54.378Z,9.20
2023-03-12T00:29:05.142Z,9.70
2023-03-12T00:29:16.206Z,10.00
2023-03-12T00:29:27.178Z,8.80
2023-03-12T00:29:37.952Z,9.50
2023-03-12T00:29:49.017Z,9.90
2023-03-12T00:29:59.956Z,9.40
2023-03-12T00:30:10.769Z,8.50
2023-03-12T00:30:21.817Z,7.60
2023-03-12T00:30:32.778Z,7.80
2023-03-12T00:30:43.551Z,7.60
2023-03-12T00:30:57.104Z,8.10
2023-03-12T00:31:05.556Z,9.50
2023-03-12T00:31:16.343Z,9.00
2023-03-12T00:31:27.432Z,9.60
2023-03-12T00:31:38.511Z,8.20
2023-03-12T00:31:49.419Z,7.80
2023-03-12T00:31:59.893Z,6.90
2023-03-12T00:32:10.866Z,7.80
2023-03-12T00:32:21.699Z,7.80
2023-03-12T00:32:32.721Z,8.30
2023-03-12T00:32:43.768Z,7.10
2023-03-12T00:32:54.605Z,8.30
2023-03-12T00:33:05.236Z,8.00
2023-03-12T00:33:16.174Z,7.90
2023-03-12T00:33:26.962Z,8.70
2023-03-12T00:33:38.004Z,9.20
2023-03-12T00:33:48.975Z,8.00
2023-03-12T00:33:59.745Z,8.50
2023-03-12T00:34:10.832Z,8.40
2023-03-12T00:34:21.795Z,9.50
2023-03-12T00:34:32.568Z,9.50
2023-03-12T00:34:43.616Z,9.40
2023-03-12T00:34:54.581Z,7.50
2023-03-12T00:35:05.358Z,7.70
2023-03-12T00:35:16.406Z,7.10
2023-03-12T00:35:27.443Z,7.20
2023-03-12T00:35:38.258Z,7.40
2023-03-12T00:35:48.760Z,7.90
2023-03-12T00:35:59.747Z,7.70
2023-03-12T00:36:10.473Z,8.00
2023-03-12T00:36:21.552Z,8.20
2023-03-12T00:36:32.526Z,8.60
2023-03-12T00:36:43.301Z,8.80
2023-03-12T00:36:54.377Z,8.50
2023-03-12T00:37:05.357Z,7.70
2023-03-12T00:37:16.173Z,7.40
2023-03-12T00:37:27.187Z,8.10
2023-03-12T00:37:38.147Z,8.00
2023-03-12T00:37:48.937Z,8.40
2023-03-12T00:37:59.965Z,8.00
2023-03-12T00:38:11.038Z,7.50
2023-03-12T00:38:21.733Z,6.10
2023-03-12T00:38:32.789Z,6.00
2023-03-12T00:38:43.770Z,6.80
2023-03-12T00:38:54.559Z,7.00
2023-03-12T00:39:05.585Z,8.00
2023-03-12T00:39:16.559Z,9.90
2023-03-12T00:39:27.326Z,10.20
2023-03-12T00:39:38.374Z,9.50
2023-03-12T00:39:49.343Z,7.00
2023-03-12T00:40:00.119Z,8.20
2023-03-12T00:40:11.218Z,9.00
2023-03-12T00:40:22.174Z,9.20
2023-03-12T00:40:32.950Z,7.80
2023-03-12T00:40:44.002Z,6.80
2023-03-12T00:40:54.981Z,6.70
2023-03-12T00:41:05.800Z,7.60
2023-03-12T00:41:16.799Z,7.00
2023-03-12T00:41:27.808Z,8.00
2023-03-12T00:41:38.617Z,7.60
2023-03-12T00:41:49.648Z,7.70
2023-03-12T00:42:00.647Z,7.90
2023-03-12T00:42:11.397Z,7.90
2023-03-12T00:42:22.442Z,8.00
2023-03-12T00:42:33.421Z,8.10
2023-03-12T00:42:44.177Z,7.40
2023-03-12T00:42:55.234Z,7.70
2023-03-12T00:43:06.209Z,7.50
2023-03-12T00:43:16.975Z,6.60
2023-03-12T00:43:28.015Z,7.30
2023-03-12T00:43:38.982Z,7.20
2023-03-12T00:43:49.767Z,7.20
2023-03-12T00:44:00.882Z,6.90
2023-03-12T00:44:11.814Z,6.40
2023-03-12T00:44:22.570Z,6.20
2023-03-12T00:44:33.632Z,6.20
2023-03-12T00:44:44.629Z,5.90
2023-03-12T00:44:55.374Z,5.80
2023-03-12T00:45:06.419Z,6.60
2023-03-12T00:45:17.415Z,7.50
2023-03-12T00:45:28.224Z,6.80
2023-03-12T00:45:39.272Z,7.20
2023-03-12T00:45:50.244Z,7.50
2023-03-12T00:46:00.997Z,6.20
2023-03-12T00:46:12.142Z,6.40
2023-03-12T00:46:22.629Z,5.70
2023-03-12T00:46:33.401Z,5.80
2023-03-12T00:46:44.526Z,5.70
2023-03-12T00:46:54.996Z,5.70
2023-03-12T00:47:05.770Z,6.20
2023-03-12T00:47:16.854Z,6.90
2023-03-12T00:47:27.832Z,7.00
2023-03-12T00:47:38.594Z,6.60
2023-03-12T00:47:49.629Z,6.70
2023-03-12T00:48:00.592Z,5.70
2023-03-12T00:48:11.365Z,6.30
2023-03-12T00:48:22.410Z,7.40
2023-03-12T00:48:33.387Z,8.40
2023-03-12T00:48:44.181Z,9.00
2023-03-12T00:48:55.262Z,8.60
2023-03-12T00:49:06.222Z,8.10
2023-03-12T00:49:16.997Z,6.80
2023-03-12T00:49:28.042Z,6.60
2023-03-12T00:49:39.023Z,5.80
2023-03-12T00:49:49.779Z,6.10
2023-03-12T00:50:00.881Z,5.70
2023-03-12T00:50:11.812Z,6.30
2023-03-12T00:50:22.574Z,5.60
2023-03-12T00:50:33.620Z,5.00
2023-03-12T00:50:44.604Z,5.40
2023-03-12T00:50:55.407Z,6.40
2023-03-12T00:51:06.449Z,7.30
2023-03-12T00:51:17.431Z,7.60
2023-03-12T00:51:28.210Z,7.50
2023-03-12T00:51:39.363Z,7.90
2023-03-12T00:51:49.831Z,7.50
2023-03-12T00:52:00.644Z,6.40
2023-03-12T00:52:11.672Z,6.10
2023-03-12T00:52:22.646Z,5.60
2023-03-12T00:52:33.400Z,6.00
2023-03-12T00:52:44.476Z,5.80
2023-03-12T00:52:55.424Z,7.10
2023-03-12T00:53:06.210Z,7.30
2023-03-12T00:53:17.285Z,7.30
2023-03-12T00:53:28.277Z,6.00
2023-03-12T00:53:39.071Z,6.70
2023-03-12T00:53:50.095Z,7.40
2023-03-12T00:54:01.063Z,7.60
2023-03-12T00:54:11.833Z,7.10
2023-03-12T00:54:22.892Z,7.60
2023-03-12T00:54:33.866Z,7.80
2023-03-12T00:54:44.649Z,6.70
2023-03-12T00:54:55.793Z,6.40
2023-03-12T00:55:06.711Z,8.60
2023-03-12T00:55:17.476Z,8.60
2023-03-12T00:55:28.529Z,8.60
2023-03-12T00:55:39.496Z,8.10
2023-03-12T00:55:50.296Z,8.30
2023-03-12T00:56:01.345Z,8.20
2023-03-12T00:56:12.300Z,7.90
2023-03-12T00:56:23.061Z,7.00
2023-03-12T00:56:34.185Z,7.80
2023-03-12T00:56:45.133Z,6.90
2023-03-12T00:56:55.909Z,6.10
2023-03-12T00:57:06.957Z,6.40
2023-03-12T00:57:17.934Z,7.20
2023-03-12T00:57:28.723Z,7.30
2023-03-12T00:57:39.763Z,9.00
2023-03-12T00:57:50.745Z,8.20
2023-03-12T00:58:01.522Z,6.00
2023-03-12T00:58:12.582Z,6.50
2023-03-12T00:58:23.619Z,7.00
2023-03-12T00:58:34.417Z,7.50
2023-03-12T00:58:45.456Z,7.20
2023-03-12T00:58:56.527Z,6.70
2023-03-12T00:59:07.244Z,7.40
2023-03-12T00:59:18.284Z,7.40
2023-03-12T00:59:29.252Z,7.20
2023-03-12T00:59:40.032Z,6.80
2023-03-12T00:59:51.103Z,6.10
2023-03-12T01:00:02.050Z,6.00
2023-03-12T01:00:12.855Z,5.70
2023-03-12T01:00:24.079Z,5.90
2023-03-12T01:00:34.579Z,6.70
2023-03-12T01:00:45.357Z,8.30
2023-03-12T01:00:56.432Z,9.80
2023-03-12T01:01:07.411Z,8.10
2023-03-12T01:01:18.142Z,8.00
2023-03-12T01:01:29.190Z,7.00
2023-03-12T01:01:40.181Z,6.90
2023-03-12T01:01:50.960Z,6.20
2023-03-12T01:02:02.011Z,8.60
2023-03-12T01:02:12.975Z,9.50
2023-03-12T01:02:23.742Z,9.50
2023-03-12T01:02:34.827Z,7.70
2023-03-12T01:02:45.791Z,8.60
2023-03-12T01:02:56.582Z,8.20
2023-03-12T01:03:07.623Z,8.10
2023-03-12T01:03:18.592Z,7.20
2023-03-12T01:03:29.367Z,6.70
2023-03-12T01:03:40.487Z,6.30
2023-03-12T01:03:51.629Z,5.90
2023-03-12T01:04:02.485Z,6.90
2023-03-12T01:04:13.613Z,8.20
2023-03-12T01:04:24.559Z,8.30
2023-03-12T01:04:35.311Z,8.70
2023-03-12T01:04:46.358Z,7.80
2023-03-12T01:04:57.340Z,7.20
2023-03-12T01:05:08.114Z,5.80
2023-03-12T01:05:19.190Z,6.80
2023-03-12T01:05:30.224Z,7.50
2023-03-12T01:05:41.001Z,8.70
2023-03-12T01:05:52.044Z,8.40
2023-03-12T01:06:03.033Z,7.80
2023-03-12T01:06:13.800Z,6.60
2023-03-12T01:06:24.854Z,6.00
2023-03-12T01:06:35.819Z,6.70
2023-03-12T01:06:46.619Z,7.70
2023-03-12T01:06:57.140Z,7.30
2023-03-12T01:07:08.106Z,7.10
2023-03-12T01:07:18.866Z,6.40
2023-03-12T01:07:30.127Z,6.90
2023-03-12T01:07:40.531Z,6.20
2023-03-12T01:07:51.318Z,7.00
2023-03-12T01:08:02.380Z,6.60
2023-03-12T01:08:13.343Z,7.00
2023-03-12T01:08:24.165Z,8.50
2023-03-12T01:08:35.226Z,8.30
2023-03-12T01:08:46.160Z,7.40
2023-03-12T01:08:56.937Z,6.20
2023-03-12T01:09:08.024Z,7.10
2023-03-12T01:09:18.980Z,7.00
2023-03-12T01:09:29.740Z,6.80
2023-03-12T01:09:40.796Z,6.20
2023-03-12T01:09:51.776Z,6.00
2023-03-12T01:10:02.543Z,6.20
2023-03-12T01:10:13.614Z,6.20
2023-03-12T01:10:24.582Z,6.80
2023-03-12T01:10:35.372Z,7.20
2023-03-12T01:10:46.420Z,7.70
2023-03-12T01:10:57.415Z,8.00
2023-03-12T01:11:08.191Z,7.70
2023-03-12T01:11:19.245Z,9.10
2023-03-12T01:11:30.218Z,8.20
2023-03-12T01:11:41.020Z,8.10
2023-03-12T01:11:52.119Z,6.80
2023-03-12T01:12:03.090Z,7.70
2023-03-12T01:12:13.872Z,8.20
2023-03-12T01:12:24.932Z,8.20
2023-03-12T01:12:35.889Z,8.80
2023-03-12T01:12:46.642Z,8.70
2023-03-12T01:12:57.713Z,8.70
2023-03-12T01:13:08.676Z,7.50
2023-03-12T01:13:19.439Z,7.50
2023-03-12T01:13:30.502Z,8.40
2023-03-12T01:13:41.468Z,8.50
2023-03-12T01:13:52.248Z,7.30
2023-03-12T01:14:03.302Z,6.50
2023-03-12T01:14:14.266Z,6.50
2023-03-12T01:14:25.031Z,6.50
2023-03-12T01:14:36.079Z,6.90
2023-03-12T01:14:47.057Z,8.00
2023-03-12T01:14:57.804Z,8.30
2023-03-12T01:15:08.858Z,6.90
2023-03-12T01:15:19.834Z,6.90
2023-03-12T01:15:30.592Z,7.30
2023-03-12T01:15:41.637Z,7.60
2023-03-12T01:15:52.597Z,6.60
2023-03-12T01:16:03.467Z,6.80
2023-03-12T01:16:14.042Z,7.30
2023-03-12T01:16:25.018Z,8.20
2023-03-12T01:16:35.786Z,7.60
2023-03-12T01:16:46.444Z,6.90
2023-03-12T01:16:56.902Z,6.10
2023-03-12T01:17:07.671Z,7.00
2023-03-12T01:17:18.738Z,8.10
2023-03-12T01:17:29.713Z,8.40
2023-03-12T01:17:40.480Z,8.40
2023-03-12T01:17:51.521Z,8.50
2023-03-12T01:18:02.525Z,8.40
2023-03-12T01:18:13.283Z,7.30
2023-03-12T01:18:24.339Z,7.30
2023-03-12T01:18:35.312Z,7.80
2023-03-12T01:18:46.066Z,8.50
2023-03-12T01:18:57.173Z,7.90
2023-03-12T01:19:08.110Z,6.80
2023-03-12T01:19:18.885Z,6.40
2023-03-12T01:19:29.936Z,6.40
2023-03-12T01:19:40.912Z,7.00
2023-03-12T01:19:51.673Z,7.20
2023-03-12T01:20:02.726Z,7.50
2023-03-12T01:20:13.707Z,7.10
2023-03-12T01:20:24.512Z,7.40
2023-03-12T01:20:35.202Z,8.10
2023-03-12T01:20:46.155Z,8.30
2023-03-12T01:20:56.922Z,8.00
2023-03-12T01:21:07.984Z,8.10
2023-03-12T01:21:18.956Z,7.90
2023-03-12T01:21:29.741Z,7.80
2023-03-12T01:21:40.799Z,7.40
2023-03-12T01:21:51.787Z,7.40
2023-03-12T01:22:02.602Z,8.10
2023-03-12T01:22:13.630Z,8.40
2023-03-12T01:22:24.604Z,7.80
2023-03-12T01:22:35.353Z,6.80
2023-03-12T01:22:46.426Z,6.50
2023-03-12T01:22:57.389Z,7.30
2023-03-12T01:23:08.154Z,9.00
2023-03-12T01:23:19.239Z,9.00
2023-03-12T01:23:30.219Z,7.40
2023-03-12T01:23:40.972Z,6.20
2023-03-12T01:23:52.087Z,6.10
2023-03-12T01:24:03.084Z,6.30
2023-03-12T01:24:13.807Z,6.40
2023-03-12T01:24:24.845Z,6.30
2023-03-12T01:24:35.816Z,7.10
2023-03-12T01:24:46.597Z,7.50
2023-03-12T01:24:57.679Z,7.20
2023-03-12T01:25:08.671Z,7.90
2023-03-12T01:25:19.459Z,7.60
2023-03-12T01:25:30.491Z,7.50
2023-03-12T01:25:41.484Z,7.50
2023-03-12T01:25:52.269Z,7.00
2023-03-12T01:26:03.326Z,6.40
2023-03-12T01:26:14.353Z,6.20
2023-03-12T01:26:25.140Z,6.40
2023-03-12T01:26:35.642Z,7.20
2023-03-12T01:26:46.615Z,6.50
2023-03-12T01:26:57.446Z,6.70
2023-03-12T01:27:07.931Z,6.90
2023-03-12T01:27:18.894Z,7.20
2023-03-12T01:27:29.660Z,8.20
2023-03-12T01:27:40.718Z,7.30
2023-03-12T01:27:51.712Z,8.80
2023-03-12T01:28:02.504Z,7.50
2023-03-12T01:28:13.545Z,7.70
2023-03-12T01:28:24.505Z,7.80
2023-03-12T01:28:35.269Z,7.70
2023-03-12T01:28:46.341Z,7.10
2023-03-12T01:28:57.314Z,7.20
2023-03-12T01:29:08.095Z,7.00
2023-03-12T01:29:19.136Z,6.90
2023-03-12T01:29:30.106Z,7.10
2023-03-12T01:29:40.895Z,7.90
2023-03-12T01:29:51.984Z,9.20
2023-03-12T01:30:02.930Z,10.30
2023-03-12T01:30:13.693Z,8.20
2023-03-12T01:30:24.756Z,7.30
2023-03-12T01:30:35.729Z,6.20
2023-03-12T01:30:46.489Z,6.50
2023-03-12T01:30:57.539Z,7.10
2023-03-12T01:31:08.610Z,7.60
2023-03-12T01:31:19.395Z,7.80
2023-03-12T01:31:30.492Z,8.10
2023-03-12T01:31:41.442Z,7.70
2023-03-12T01:31:52.425Z,7.40
2023-03-12T01:32:02.917Z,7.30
2023-03-12T01:32:14.039Z,7.60
2023-03-12T01:32:24.909Z,6.90
2023-03-12T01:32:35.468Z,6.70
2023-03-12T01:32:46.408Z,6.70
2023-03-12T01:32:57.144Z,8.00
2023-03-12T01:33:08.216Z,7.00
2023-03-12T01:33:19.188Z,7.90
2023-03-12T01:33:29.948Z,7.90
2023-03-12T01:33:41.010Z,8.20
2023-03-12T01:33:51.967Z,6.90
2023-03-12T01:34:02.789Z,7.20
2023-03-12T01:34:13.850Z,7.00
2023-03-12T01:34:24.789Z,7.20
2023-03-12T01:34:35.636Z,7.30
2023-03-12T01:34:46.648Z,8.00
2023-03-12T01:34:57.619Z,8.00
2023-03-12T01:35:08.491Z,8.10
2023-03-12T01:35:19.044Z,8.10
2023-03-12T01:35:30.044Z,8.50
2023-03-12T01:35:40.906Z,6.80
2023-03-12T01:35:51.646Z,6.40
2023-03-12T01:36:02.210Z,6.10
2023-03-12T01:36:13.135Z,7.50
2023-03-12T01:36:24.212Z,8.30
2023-03-12T01:36:35.218Z,9.90
2023-03-12T01:36:45.953Z,8.90
2023-03-12T01:36:57.023Z,8.20
2023-03-12T01:37:08.030Z,7.40
2023-03-12T01:37:18.787Z,7.50
2023-03-12T01:37:29.849Z,7.00
2023-03-12T01:37:40.839Z,7.10
2023-03-12T01:37:51.615Z,7.10
2023-03-12T01:38:02.655Z,6.90
2023-03-12T01:38:13.690Z,7.30
2023-03-12T01:38:24.612Z,7.50
2023-03-12T01:38:35.699Z,7.40
2023-03-12T01:38:46.663Z,7.80
2023-03-12T01:38:57.436Z,7.90
2023-03-12T01:39:08.486Z,7.60
2023-03-12T01:39:19.491Z,6.60
2023-03-12T01:39:30.289Z,6.40
2023-03-12T01:39:40.833Z,7.10
2023-03-12T01:39:51.808Z,7.30
2023-03-12T01:40:02.594Z,6.70
2023-03-12T01:40:13.672Z,6.40
2023-03-12T01:40:24.647Z,7.10
2023-03-12T01:40:35.403Z,6.70
2023-03-12T01:40:46.487Z,7.10
2023-03-12T01:40:57.424Z,6.50
2023-03-12T01:41:08.192Z,7.30
2023-03-12T01:41:19.264Z,7.40
2023-03-12T01:41:30.230Z,7.70
2023-03-12T01:41:41.015Z,6.50
2023-03-12T01:41:52.063Z,5.70
2023-03-12T01:42:03.033Z,6.50
2023-03-12T01:42:13.818Z,7.10
2023-03-12T01:42:24.873Z,8.30
2023-03-12T01:42:35.837Z,8.40
2023-03-12T01:42:46.629Z,8.20
2023-03-12T01:42:57.717Z,6.90
2023-03-12T01:43:08.686Z,7.40
2023-03-12T01:43:19.444Z,6.50
2023-03-12T01:43:30.504Z,7.40
2023-03-12T01:43:41.476Z,6.90
2023-03-12T01:43:52.304Z,6.80
2023-03-12T01:44:03.314Z,5.50
2023-03-12T01:44:14.270Z,7.10
2023-03-12T01:44:25.061Z,7.90
2023-03-12T01:44:36.103Z,8.00
2023-03-12T01:44:47.080Z,7.20
2023-03-12T01:44:57.846Z,7.10
2023-03-12T01:45:08.918Z,7.20
2023-03-12T01:45:19.877Z,8.00
2023-03-12T01:45:30.738Z,8.30
2023-03-12T01:45:41.207Z,9.30
2023-03-12T01:45:52.233Z,9.50
2023-03-12T01:46:03.086Z,9.80
2023-03-12T01:46:13.601Z,10.10
2023-03-12T01:46:24.548Z,10.30
2023-03-12T01:46:35.331Z,9.60
2023-03-12T01:46:46.384Z,7.60
2023-03-12T01:46:57.349Z,6.70
2023-03-12T01:47:08.158Z,6.80
2023-03-12T01:47:19.191Z,6.90
2023-03-12T01:47:30.144Z,6.60
2023-03-12T01:47:40.972Z,6.00
2023-03-12T01:47:52.000Z,6.70
2023-03-12T01:48:02.987Z,7.90
2023-03-12T01:48:13.751Z,8.30
2023-03-12T01:48:24.793Z,7.90
2023-03-12T01:48:35.789Z,7.20
2023-03-12T01:48:46.562Z,7.50
2023-03-12T01:48:57.588Z,7.90
2023-03-12T01:49:08.561Z,8.30
2023-03-12T01:49:19.347Z,7.50
2023-03-12T01:49:30.402Z,7.80
2023-03-12T01:49:41.369Z,7.60
2023-03-12T01:49:52.137Z,9.30
2023-03-12T01:50:03.193Z,8.70
2023-03-12T01:50:14.221Z,8.40
2023-03-12T01:50:25.005Z,7.20
2023-03-12T01:50:36.051Z,7.20
2023-03-12T01:50:47.012Z,6.70
2023-03-12T01:50:57.812Z,7.40
2023-03-12T01:51:08.848Z,8.40
2023-03-12T01:51:19.812Z,7.50
2023-03-12T01:51:30.587Z,8.00
2023-03-12T01:51:41.656Z,7.40
2023-03-12T01:51:52.649Z,7.20
2023-03-12T01:52:03.412Z,6.90
2023-03-12T01:52:14.571Z,7.30
2023-03-12T01:52:25.531Z,8.00
2023-03-12T01:52:36.282Z,9.10
2023-03-12T01:52:47.331Z,9.00
2023-03-12T01:52:58.294Z,9.20
2023-03-12T01:53:09.061Z,8.00
2023-03-12T01:53:20.120Z,7.10
2023-03-12T01:53:31.090Z,6.80
2023-03-12T01:53:41.874Z,7.70
2023-03-12T01:53:52.928Z,7.50
2023-03-12T01:54:03.884Z,7.00
2023-03-12T01:54:14.679Z,7.30
2023-03-12T01:54:25.728Z,7.80
2023-03-12T01:54:36.714Z,8.10
2023-03-12T01:54:47.468Z,7.50
2023-03-12T01:54:58.525Z,8.30
2023-03-12T01:55:09.503Z,8.40
2023-03-12T01:55:20.316Z,8.70
2023-03-12T01:55:30.857Z,7.70
2023-03-12T01:55:41.796Z,6.20
2023-03-12T01:55:52.591Z,7.10
2023-03-12T01:56:03.657Z,7.50
2023-03-12T01:56:14.618Z,7.90
2023-03-12T01:56:25.418Z,7.60
2023-03-12T01:56:36.443Z,7.50
2023-03-12T01:56:47.406Z,8.10
2023-03-12T01:56:58.204Z,7.70
2023-03-12T01:57:09.250Z,8.40
2023-03-12T01:57:20.212Z,8.40
2023-03-12T01:57:31.008Z,9.00
2023-03-12T01:57:42.069Z,7.90
2023-03-12T01:57:53.068Z,8.10
2023-03-12T01:58:03.831Z,7.40
2023-03-12T01:58:14.894Z,6.90
2023-03-12T01:58:25.853Z,7.10
2023-03-12T01:58:36.613Z,7.30
2023-03-12T01:58:47.674Z,8.30
2023-03-12T01:58:58.627Z,10.00
2023-03-12T01:59:09.391Z,9.50
2023-03-12T01:59:20.443Z,8.40
2023-03-12T01:59:31.422Z,7.80
2023-03-12T01:59:42.190Z,8.00
2023-03-12T01:59:53.234Z,8.90
2023-03-12T02:00:04.219Z,7.90
2023-03-12T02:00:15.008Z,9.60
2023-03-12T02:00:26.052Z,9.00
2023-03-12T02:00:37.024Z,10.10
2023-03-12T02:00:47.942Z,8.10
2023-03-12T02:00:58.460Z,7.50
2023-03-12T02:01:09.482Z,7.90
2023-03-12T02:01:20.330Z,8.30
2023-03-12T02:01:30.863Z,8.30
2023-03-12T02:01:41.844Z,8.10
2023-03-12T02:01:52.589Z,8.00
2023-03-12T02:02:03.657Z,8.40
2023-03-12T02:02:14.616Z,8.40
2023-03-12T02:02:25.379Z,7.70
2023-03-12T02:02:36.440Z,6.80
2023-03-12T02:02:47.409Z,7.40
2023-03-12T02:02:58.215Z,7.80
2023-03-12T02:03:09.295Z,7.70
2023-03-12T02:03:20.242Z,8.70
2023-03-12T02:03:31.041Z,8.40
2023-03-12T02:03:42.147Z,7.60
2023-03-12T02:03:53.166Z,6.30
2023-03-12T02:04:04.020Z,6.90
2023-03-12T02:04:14.541Z,6.80
2023-03-12T02:04:25.508Z,7.80
2023-03-12T02:04:36.261Z,7.90
2023-03-12T02:04:47.318Z,7.10
2023-03-12T02:04:58.285Z,7.80
2023-03-12T02:05:09.063Z,7.80
2023-03-12T02:05:20.107Z,8.70
2023-03-12T02:05:31.070Z,7.60
2023-03-12T02:05:41.847Z,6.70
2023-03-12T02:05:52.896Z,7.30
2023-03-12T02:06:03.864Z,8.50
2023-03-12T02:06:14.658Z,9.10
2023-03-12T02:06:25.701Z,9.60
2023-03-12T02:06:36.670Z,8.80
2023-03-12T02:06:47.430Z,7.40
2023-03-12T02:06:58.492Z,7.40
2023-03-12T02:07:09.503Z,8.30
2023-03-12T02:07:20.282Z,8.70
2023-03-12T02:07:31.336Z,8.60
2023-03-12T02:07:42.318Z,7.60
2023-03-12T02:07:53.098Z,8.10
2023-03-12T02:08:04.174Z,7.70
2023-03-12T02:08:15.116Z,8.20
2023-03-12T02:08:25.900Z,8.20
2023-03-12T02:08:36.962Z,8.10
2023-03-12T02:08:48.001Z,8.40
2023-03-12T02:08:58.771Z,8.30
2023-03-12T02:09:09.786Z,8.20
2023-03-12T02:09:20.738Z,8.30
2023-03-12T02:09:31.530Z,7.40
2023-03-12T02:09:42.559Z,8.50
2023-03-12T02:09:53.542Z,8.50
2023-03-12T02:10:04.317Z,8.10
2023-03-12T02:10:15.347Z,7.50
2023-03-12T02:10:26.326Z,7.10
2023-03-12T02:10:37.134Z,6.70
2023-03-12T02:10:48.193Z,7.70
2023-03-12T02:10:59.153Z,8.90
2023-03-12T02:11:09.920Z,8.50
2023-03-12T02:11:20.959Z,8.10
2023-03-12T02:11:31.928Z,7.70
2023-03-12T02:11:42.701Z,7.50
2023-03-12T02:11:53.761Z,8.30
2023-03-12T02:12:04.739Z,9.00
2023-03-12T02:12:15.535Z,8.70
2023-03-12T02:12:26.045Z,8.60
2023-03-12T02:12:37.013Z,8.50
2023-03-12T02:12:47.796Z,8.80
2023-03-12T02:12:58.841Z,7.90
2023-03-12T02:13:09.803Z,7.10
2023-03-12T02:13:20.578Z,6.90
2023-03-12T02:13:31.640Z,7.30
2023-03-12T02:13:42.617Z,7.70
2023-03-12T02:13:53.377Z,8.50
2023-03-12T02:14:04.433Z,8.00
2023-03-12T02:14:15.412Z,7.60
2023-03-12T02:14:26.191Z,7.70
2023-03-12T02:14:37.224Z,6.80
2023-03-12T02:14:48.190Z,7.00
2023-03-12T02:14:58.993Z,6.70
2023-03-12T02:15:09.523Z,7.20
2023-03-12T02:15:20.499Z,8.70
2023-03-12T02:15:31.280Z,9.40
2023-03-12T02:15:42.329Z,10.30
2023-03-12T02:15:53.310Z,8.40
2023-03-12T02:16:04.128Z,8.30
2023-03-12T02:16:14.679Z,7.40
2023-03-12T02:16:25.674Z,6.50
2023-03-12T02:16:36.489Z,6.90
2023-03-12T02:16:47.567Z,7.40
2023-03-12T02:16:58.488Z,7.40
2023-03-12T02:17:09.249Z,7.30
2023-03-12T02:17:20.348Z,7.30
2023-03-12T02:17:31.325Z,7.20
2023-03-12T02:17:42.073Z,7.20
2023-03-12T02:17:53.133Z,7.10
2023-03-12T02:18:04.102Z,7.00
2023-03-12T02:18:14.881Z,8.10
2023-03-12T02:18:25.931Z,8.20
2023-03-12T02:18:36.890Z,8.40
2023-03-12T02:18:47.668Z,8.40
2023-03-12T02:18:58.710Z,7.70
2023-03-12T02:19:09.688Z,7.30
2023-03-12T02:19:20.436Z,7.80
2023-03-12T02:19:31.499Z,7.60
2023-03-12T02:19:42.489Z,6.60
2023-03-12T02:19:53.244Z,6.10
2023-03-12T02:20:04.301Z,6.20
2023-03-12T02:20:15.267Z,6.50
2023-03-12T02:20:26.067Z,6.30
2023-03-12T02:20:37.084Z,7.80
2023-03-12T02:20:48.082Z,8.50
2023-03-12T02:20:58.837Z,9.80
2023-03-12T02:21:09.899Z,9.10
2023-03-12T02:21:20.876Z,8.00
2023-03-12T02:21:31.645Z,7.40
2023-03-12T02:21:42.718Z,7.40
2023-03-12T02:21:53.678Z,7.30
2023-03-12T02:22:04.517Z,7.60
2023-03-12T02:22:15.508Z,6.70
2023-03-12T02:22:26.483Z,8.00
2023-03-12T02:22:37.285Z,8.30
2023-03-12T02:22:48.326Z,9.90
2023-03-12T02:22:59.304Z,8.40
2023-03-12T02:23:10.063Z,8.20
2023-03-12T02:23:21.119Z,7.40
2023-03-12T02:23:32.093Z,7.10
2023-03-12T02:23:42.871Z,6.80
2023-03-12T02:23:53.926Z,7.90
2023-03-12T02:24:04.892Z,7.60
2023-03-12T02:24:15.647Z,7.00
2023-03-12T02:24:26.736Z,6.70
2023-03-12T02:24:37.697Z,7.80
2023-03-12T02:24:48.504Z,7.40
2023-03-12T02:24:59.526Z,7.20
2023-03-12T02:25:10.526Z,7.40